createdAt,value
2018-04-26T00:00:42.458Z,98450.80
2018-04-26T00:03:10.029Z,98452.08
2018-04-26T00:05:37.593Z,98457.98
2018-04-26T00:08:05.211Z,98462.94
2018-04-26T00:10:32.771Z,98456.23
2018-04-26T00:13:00.949Z,98459.72
2018-04-26T00:15:28.571Z,98464.85
2018-04-26T00:17:56.154Z,98457.67
2018-04-26T00:20:23.731Z,98454.90
2018-04-26T00:22:51.346Z,98457.33
2018-04-26T00:25:30.517Z,98452.54
2018-04-26T00:27:58.165Z,98449.00
2018-04-26T00:30:25.729Z,98441.66
2018-04-26T00:32:53.299Z,98442.61
2018-04-26T00:35:20.912Z,98440.42
2018-04-26T00:37:48.471Z,98444.77
2018-04-26T00:40:16.035Z,98442.70
2018-04-26T00:42:43.764Z,98440.81
2018-04-26T00:45:11.330Z,98437.48
2018-04-26T00:47:38.904Z,98444.22
2018-04-26T00:50:07.174Z,98441.59
2018-04-26T00:52:34.900Z,98437.11
2018-04-26T00:55:02.470Z,98444.03
2018-04-26T00:57:30.093Z,98444.28
2018-04-26T00:59:57.687Z,98444.27
2018-04-26T01:02:25.264Z,98438.28
2018-04-26T01:04:52.878Z,98443.30
2018-04-26T01:07:20.446Z,98445.81
2018-04-26T01:09:48.019Z,98445.95
2018-04-26T01:12:15.667Z,98448.02
2018-04-26T01:14:43.252Z,98451.16
2018-04-26T01:17:10.823Z,98451.89
2018-04-26T01:19:38.518Z,98449.17
2018-04-26T01:27:24.537Z,98448.65
2018-04-26T01:29:52.258Z,98446.87
2018-04-26T01:32:19.888Z,98445.33
2018-04-26T01:34:47.473Z,98438.23
2018-04-26T01:37:26.981Z,98438.22
2018-04-26T01:39:54.550Z,98433.71
2018-04-26T01:42:22.120Z,98432.67
2018-04-26T01:44:49.741Z,98433.52
2018-04-26T01:47:17.335Z,98434.75
2018-04-26T01:49:47.634Z,98425.88
2018-04-26T01:52:16.155Z,98425.13
2018-04-26T01:54:43.805Z,98429.30
2018-04-26T01:57:11.404Z,98426.70
2018-04-26T01:59:39.014Z,98430.23
2018-04-26T02:02:06.599Z,98429.50
2018-04-26T02:04:34.183Z,98435.28
2018-04-26T02:07:01.897Z,98432.34
2018-04-26T02:09:29.466Z,98429.94
2018-04-26T02:11:57.021Z,98432.34
2018-04-26T02:14:24.731Z,98431.84
2018-04-26T02:16:52.643Z,98434.88
2018-04-26T02:19:20.490Z,98433.13
2018-04-26T02:21:48.107Z,98442.94
2018-04-26T02:24:15.715Z,98446.59
2018-04-26T02:26:43.308Z,98445.44
2018-04-26T02:29:10.935Z,98445.46
2018-04-26T02:31:38.581Z,98440.55
2018-04-26T02:34:06.156Z,98440.02
2018-04-26T02:36:33.940Z,98439.70
2018-04-26T02:39:01.589Z,98444.20
2018-04-26T02:41:29.187Z,98443.69
2018-04-26T02:43:56.800Z,98446.63
2018-04-26T02:46:24.376Z,98449.06
2018-04-26T02:48:51.965Z,98442.56
2018-04-26T02:51:19.755Z,98435.36
2018-04-26T02:53:47.425Z,98439.45
2018-04-26T02:56:15.668Z,98438.20
2018-04-26T02:58:43.399Z,98437.67
2018-04-26T03:01:11.940Z,98435.81
2018-04-26T03:03:39.560Z,98436.64
2018-04-26T03:06:07.268Z,98436.05
2018-04-26T03:08:34.938Z,98444.20
2018-04-26T03:11:02.527Z,98433.55
2018-04-26T03:13:30.232Z,98442.97
2018-04-26T03:15:57.902Z,98441.53
2018-04-26T03:18:25.638Z,98440.69
2018-04-26T03:20:53.330Z,98446.55
2018-04-26T03:23:20.910Z,98443.19
2018-04-26T03:25:48.548Z,98447.48
2018-04-26T03:28:16.251Z,98447.48
2018-04-26T03:30:43.904Z,98447.91
2018-04-26T03:33:11.495Z,98447.39
2018-04-26T03:35:39.184Z,98450.95
2018-04-26T03:38:06.784Z,98445.09
2018-04-26T03:40:34.801Z,98445.10
2018-04-26T03:43:02.437Z,98443.85
2018-04-26T03:45:32.828Z,98445.30
2018-04-26T03:48:00.476Z,98446.78
2018-04-26T03:50:28.107Z,98444.14
2018-04-26T03:52:55.688Z,98444.02
2018-04-26T03:55:23.328Z,98454.58
2018-04-26T03:57:51.291Z,98451.84
2018-04-26T04:00:30.579Z,98459.16
2018-04-26T04:03:09.801Z,98454.95
2018-04-26T04:06:01.068Z,98452.86
2018-04-26T04:08:29.231Z,98446.98
2018-04-26T04:10:56.827Z,98451.86
2018-04-26T04:13:24.461Z,98450.19
2018-04-26T04:15:52.197Z,98450.46
2018-04-26T04:18:19.814Z,98452.03
2018-04-26T04:20:47.459Z,98453.31
2018-04-26T04:23:15.169Z,98458.70
2018-04-26T04:25:42.744Z,98451.41
2018-04-26T04:28:10.331Z,98444.66
2018-04-26T04:30:38.016Z,98453.80
2018-04-26T04:33:05.593Z,98451.41
2018-04-26T04:35:33.179Z,98445.34
2018-04-26T04:38:00.873Z,98449.96
2018-04-26T04:40:28.523Z,98445.70
2018-04-26T04:42:56.112Z,98451.73
2018-04-26T04:45:23.839Z,98452.38
2018-04-26T04:47:51.479Z,98461.44
2018-04-26T04:50:19.151Z,98462.49
2018-04-26T04:52:46.775Z,98463.09
2018-04-26T04:55:14.831Z,98466.50
2018-04-26T04:57:42.485Z,98471.66
2018-04-26T05:00:10.243Z,98470.98
2018-04-26T05:02:37.815Z,98470.47
2018-04-26T05:05:05.529Z,98468.21
2018-04-26T05:07:33.183Z,98472.14
2018-04-26T05:10:00.824Z,98470.02
2018-04-26T05:12:28.400Z,98469.55
2018-04-26T05:14:56.032Z,98466.75
2018-04-26T05:17:23.620Z,98463.95
2018-04-26T05:19:51.195Z,98467.89
2018-04-26T05:22:18.852Z,98466.64
2018-04-26T05:24:46.439Z,98471.06
2018-04-26T05:27:14.024Z,98470.10
2018-04-26T05:29:41.634Z,98467.14
2018-04-26T05:32:09.214Z,98473.48
2018-04-26T05:34:36.798Z,98472.22
2018-04-26T05:37:04.437Z,98473.84
2018-04-26T05:39:32.035Z,98472.15
2018-04-26T05:41:59.615Z,98477.64
2018-04-26T05:44:27.344Z,98478.31
2018-04-26T05:46:54.946Z,98482.97
2018-04-26T05:49:22.552Z,98488.51
2018-04-26T05:51:50.192Z,98485.66
2018-04-26T05:54:17.786Z,98488.52
2018-04-26T05:56:45.405Z,98481.22
2018-04-26T05:59:13.015Z,98489.41
2018-04-26T06:01:40.660Z,98484.64
2018-04-26T06:04:08.245Z,98485.48
2018-04-26T06:06:35.873Z,98481.66
2018-04-26T06:09:03.552Z,98479.07
2018-04-26T06:11:31.147Z,98480.40
2018-04-26T06:13:58.780Z,98483.35
2018-04-26T06:16:26.361Z,98473.94
2018-04-26T06:18:53.945Z,98471.54
2018-04-26T06:21:21.574Z,98472.17
2018-04-26T06:23:49.160Z,98463.33
2018-04-26T06:26:16.730Z,98473.56
2018-04-26T06:28:44.466Z,98469.42
2018-04-26T06:31:12.080Z,98467.88
2018-04-26T06:33:39.651Z,98469.00
2018-04-26T06:36:07.407Z,98470.10
2018-04-26T06:38:34.993Z,98468.30
2018-04-26T06:41:02.583Z,98468.58
2018-04-26T06:43:30.309Z,98459.27
2018-04-26T06:45:57.883Z,98461.02
2018-04-26T06:48:25.478Z,98461.61
2018-04-26T06:50:53.107Z,98459.04
2018-04-26T06:53:20.681Z,98456.02
2018-04-26T06:55:48.267Z,98461.11
2018-04-26T06:58:15.920Z,98467.06
2018-04-26T07:00:43.604Z,98461.95
2018-04-26T07:03:11.293Z,98468.31
2018-04-26T07:05:38.925Z,98470.52
2018-04-26T07:08:06.546Z,98465.52
2018-04-26T07:10:34.144Z,98458.50
2018-04-26T07:13:01.865Z,98459.05
2018-04-26T07:15:29.441Z,98465.38
2018-04-26T07:17:57.032Z,98459.77
2018-04-26T07:20:24.696Z,98463.06
2018-04-26T07:22:52.327Z,98464.72
2018-04-26T07:25:19.913Z,98460.84
2018-04-26T07:27:47.540Z,98459.55
2018-04-26T07:30:15.288Z,98463.43
2018-04-26T07:32:42.859Z,98457.95
2018-04-26T07:35:10.575Z,98461.28
2018-04-26T07:37:38.177Z,98461.22
2018-04-26T07:40:05.771Z,98453.29
2018-04-26T07:42:33.504Z,98458.71
2018-04-26T07:45:01.081Z,98450.52
2018-04-26T07:47:28.662Z,98447.55
2018-04-26T07:49:56.308Z,98446.95
2018-04-26T07:52:23.922Z,98451.09
2018-04-26T07:54:51.584Z,98445.56
2018-04-26T07:57:19.218Z,98447.45
2018-04-26T07:59:46.809Z,98438.78
2018-04-26T08:02:14.403Z,98444.20
2018-04-26T08:04:42.330Z,98447.02
2018-04-26T08:07:22.932Z,98448.39
2018-04-26T08:09:50.645Z,98444.62
2018-04-26T08:12:18.308Z,98440.88
2018-04-26T08:14:45.904Z,98441.88
2018-04-26T08:17:13.984Z,98441.62
2018-04-26T08:19:41.598Z,98446.25
2018-04-26T08:22:09.241Z,98442.06
2018-04-26T08:24:36.931Z,98438.66
2018-04-26T08:27:04.510Z,98433.54
2018-04-26T08:29:32.092Z,98438.55
2018-04-26T08:31:59.780Z,98443.08
2018-04-26T08:34:27.372Z,98433.13
2018-04-26T08:36:54.967Z,98433.20
2018-04-26T08:39:22.627Z,98433.43
2018-04-26T08:41:50.211Z,98437.47
2018-04-26T08:44:17.829Z,98432.46
2018-04-26T08:46:45.473Z,98425.48
2018-04-26T08:49:13.062Z,98427.86
2018-04-26T08:51:40.643Z,98426.94
2018-04-26T08:54:08.334Z,98430.33
2018-04-26T08:56:35.993Z,98430.31
2018-04-26T08:59:03.580Z,98428.82
2018-04-26T09:01:31.361Z,98430.49
2018-04-26T09:03:58.992Z,98419.94
2018-04-26T09:06:27.082Z,98418.36
2018-04-26T09:08:54.784Z,98417.41
2018-04-26T09:11:22.384Z,98411.52
2018-04-26T09:13:49.972Z,98406.56
2018-04-26T09:16:17.717Z,98406.48
2018-04-26T09:18:45.313Z,98392.95
2018-04-26T09:21:12.997Z,98403.17
2018-04-26T09:23:40.645Z,98399.81
2018-04-26T09:26:08.246Z,98393.20
2018-04-26T09:28:35.899Z,98399.89
2018-04-26T09:31:03.531Z,98395.67
2018-04-26T09:33:31.181Z,98394.04
2018-04-26T09:35:58.828Z,98390.86
2018-04-26T09:38:26.538Z,98390.95
2018-04-26T09:40:54.155Z,98388.20
2018-04-26T09:43:21.789Z,98390.74
2018-04-26T09:45:50.328Z,98386.52
2018-04-26T09:48:18.705Z,98380.17
2018-04-26T09:50:47.092Z,98383.50
2018-04-26T09:53:14.751Z,98379.45
2018-04-26T09:55:42.345Z,98370.67
2018-04-26T09:58:10.885Z,98369.38
2018-04-26T10:00:42.517Z,98371.19
2018-04-26T10:03:10.144Z,98372.92
2018-04-26T10:05:41.636Z,98360.89
2018-04-26T10:08:09.451Z,98356.59
2018-04-26T10:10:37.041Z,98360.41
2018-04-26T10:13:04.658Z,98351.66
2018-04-26T10:15:32.283Z,98347.97
2018-04-26T10:17:59.864Z,98337.53
2018-04-26T10:20:27.449Z,98339.07
2018-04-26T10:22:55.133Z,98340.83
2018-04-26T10:25:22.749Z,98342.50
2018-04-26T10:27:50.329Z,98337.75
2018-04-26T10:30:17.959Z,98336.91
2018-04-26T10:32:45.551Z,98333.98
2018-04-26T10:35:13.125Z,98328.62
2018-04-26T10:37:40.762Z,98327.25
2018-04-26T10:40:08.368Z,98320.06
2018-04-26T10:42:35.978Z,98321.09
2018-04-26T10:45:03.667Z,98314.67
2018-04-26T10:47:31.248Z,98310.59
2018-04-26T10:49:58.905Z,98313.47
2018-04-26T10:52:26.556Z,98305.75
2018-04-26T10:54:54.200Z,98306.25
2018-04-26T10:57:21.788Z,98297.64
2018-04-26T10:59:49.442Z,98292.79
2018-04-26T11:02:17.082Z,98290.42
2018-04-26T11:04:44.768Z,98284.24
2018-04-26T11:07:12.416Z,98280.91
2018-04-26T11:09:40.235Z,98271.13
2018-04-26T11:12:07.832Z,98271.03
2018-04-26T11:14:35.561Z,98266.33
2018-04-26T11:17:03.211Z,98271.84
2018-04-26T11:19:30.816Z,98267.62
2018-04-26T11:21:58.543Z,98255.58
2018-04-26T11:24:26.166Z,98262.53
2018-04-26T11:26:53.745Z,98259.71
2018-04-26T11:29:21.383Z,98258.54
2018-04-26T11:31:48.984Z,98254.05
2018-04-26T11:34:16.572Z,98245.31
2018-04-26T11:36:44.210Z,98240.61
2018-04-26T11:39:11.784Z,98231.80
2018-04-26T11:41:40.237Z,98231.89
2018-04-26T11:44:07.937Z,98231.58
2018-04-26T11:46:35.519Z,98228.59
2018-04-26T11:49:03.781Z,98218.98
2018-04-26T11:51:31.483Z,98213.31
2018-04-26T11:53:59.132Z,98219.95
2018-04-26T11:56:26.855Z,98213.50
2018-04-26T11:58:54.444Z,98208.91
2018-04-26T12:01:22.691Z,98205.94
2018-04-26T12:03:50.259Z,98208.50
2018-04-26T12:06:18.048Z,98204.44
2018-04-26T12:08:45.623Z,98205.22
2018-04-26T12:11:13.383Z,98198.48
2018-04-26T12:13:41.004Z,98188.84
2018-04-26T12:16:08.577Z,98180.53
2018-04-26T12:18:36.300Z,98180.58
2018-04-26T12:21:03.906Z,98174.31
2018-04-26T12:23:31.494Z,98168.23
2018-04-26T12:25:59.071Z,98161.48
2018-04-26T12:28:26.759Z,98158.11
2018-04-26T12:30:54.340Z,98156.70
2018-04-26T12:33:21.988Z,98157.71
2018-04-26T12:35:49.626Z,98154.20
2018-04-26T12:38:17.235Z,98149.63
2018-04-26T12:40:44.808Z,98146.92
2018-04-26T12:43:12.519Z,98148.47
2018-04-26T12:45:40.100Z,98144.81
2018-04-26T12:48:07.684Z,98147.40
2018-04-26T12:50:36.078Z,98144.83
2018-04-26T12:53:03.662Z,98135.98
2018-04-26T12:55:31.244Z,98146.83
2018-04-26T12:57:58.864Z,98141.87
2018-04-26T13:00:26.447Z,98143.91
2018-04-26T13:02:54.129Z,98137.71
2018-04-26T13:05:23.817Z,98128.76
2018-04-26T13:07:52.050Z,98139.30
2018-04-26T13:10:19.685Z,98130.91
2018-04-26T13:12:47.525Z,98124.51
2018-04-26T13:15:15.161Z,98125.24
2018-04-26T13:17:42.732Z,98120.34
2018-04-26T13:20:11.118Z,98119.52
2018-04-26T13:22:39.401Z,98124.15
2018-04-26T13:25:07.003Z,98121.85
2018-04-26T13:27:34.632Z,98125.87
2018-04-26T13:30:03.085Z,98120.05
2018-04-26T13:32:30.663Z,98119.58
2018-04-26T13:35:00.671Z,98113.75
2018-04-26T13:37:28.559Z,98115.94
2018-04-26T13:39:56.195Z,98117.59
2018-04-26T13:42:23.816Z,98109.55
2018-04-26T13:44:51.617Z,98109.23
2018-04-26T13:47:19.321Z,98114.18
2018-04-26T13:49:46.966Z,98104.03
2018-04-26T13:52:14.544Z,98109.77
2018-04-26T13:54:42.154Z,98111.13
2018-04-26T13:57:10.247Z,98112.14
2018-04-26T13:59:37.824Z,98103.54
2018-04-26T14:02:05.399Z,98109.42
2018-04-26T14:04:33.043Z,98103.66
2018-04-26T14:07:00.660Z,98105.39
2018-04-26T14:09:28.235Z,98099.36
2018-04-26T14:11:55.876Z,98098.08
2018-04-26T14:14:23.739Z,98100.05
2018-04-26T14:16:51.316Z,98103.06
2018-04-26T14:19:19.041Z,98097.69
2018-04-26T14:21:46.675Z,98093.94
2018-04-26T14:24:14.255Z,98096.27
2018-04-26T14:26:42.054Z,98097.93
2018-04-26T14:29:09.707Z,98091.70
2018-04-26T14:31:37.277Z,98085.67
2018-04-26T14:34:05.021Z,98087.67
2018-04-26T14:36:33.542Z,98087.03
2018-04-26T14:39:01.196Z,98087.44
2018-04-26T14:41:31.763Z,98093.17
2018-04-26T14:43:59.377Z,98092.61
2018-04-26T14:46:26.955Z,98092.34
2018-04-26T14:48:54.597Z,98091.21
2018-04-26T14:51:22.189Z,98089.41
2018-04-26T14:53:49.891Z,98089.47
2018-04-26T14:56:17.544Z,98084.39
2018-04-26T14:58:45.138Z,98085.10
2018-04-26T15:01:12.790Z,98087.11
2018-04-26T15:03:40.480Z,98083.77
2018-04-26T15:06:08.844Z,98085.60
2018-04-26T15:08:36.447Z,98083.38
2018-04-26T15:11:04.143Z,98089.50
2018-04-26T15:13:31.787Z,98086.97
2018-04-26T15:16:00.616Z,98082.58
2018-04-26T15:18:28.320Z,98081.39
2018-04-26T15:20:55.964Z,98083.97
2018-04-26T15:23:23.547Z,98079.90
2018-04-26T15:25:51.160Z,98082.87
2018-04-26T15:28:18.748Z,98085.16
2018-04-26T15:30:46.359Z,98077.73
2018-04-26T15:33:14.176Z,98082.66
2018-04-26T15:35:41.822Z,98076.19
2018-04-26T15:38:09.394Z,98078.67
2018-04-26T15:40:37.120Z,98079.00
2018-04-26T15:43:04.702Z,98077.14
2018-04-26T15:45:32.289Z,98077.63
2018-04-26T15:47:59.976Z,98075.05
2018-04-26T15:50:51.404Z,98082.17
2018-04-26T15:53:30.986Z,98080.08
2018-04-26T15:56:10.589Z,98083.27
2018-04-26T15:58:49.949Z,98079.02
2018-04-26T16:01:27.164Z,98082.25
2018-04-26T16:04:06.744Z,98075.10
2018-04-26T16:06:46.001Z,98082.31
2018-04-26T16:12:32.158Z,98084.77
2018-04-26T16:15:11.739Z,98083.86
2018-04-26T16:17:57.040Z,98087.64
2018-04-26T16:20:41.986Z,98090.64
2018-04-26T16:23:27.015Z,98097.45
2018-04-26T16:26:06.493Z,98101.16
2018-04-26T16:28:51.467Z,98092.84
2018-04-26T16:31:36.655Z,98103.95
2018-04-26T16:34:16.225Z,98107.93
2018-04-26T16:36:55.678Z,98104.20
2018-04-26T16:39:23.975Z,98103.60
2018-04-26T16:41:51.578Z,98099.73
2018-04-26T16:44:19.276Z,98091.59
2018-04-26T16:46:46.842Z,98097.06
2018-04-26T16:49:14.436Z,98099.48
2018-04-26T16:51:42.140Z,98103.52
2018-04-26T16:54:09.802Z,98095.89
2018-04-26T16:56:37.423Z,98098.01
2018-04-26T16:59:05.066Z,98096.34
2018-04-26T17:01:32.642Z,98093.17
2018-04-26T17:04:00.241Z,98097.84
2018-04-26T17:06:27.967Z,98090.00
2018-04-26T17:08:55.556Z,98092.61
2018-04-26T17:11:23.148Z,98097.38
2018-04-26T17:13:51.083Z,98097.91
2018-04-26T17:16:18.737Z,98101.36
2018-04-26T17:18:46.420Z,98109.31
2018-04-26T17:21:14.059Z,98106.84
2018-04-26T17:23:41.647Z,98102.53
2018-04-26T17:26:09.306Z,98112.12
2018-04-26T17:28:37.000Z,98108.51
2018-04-26T17:31:04.655Z,98115.48
2018-04-26T17:33:32.248Z,98117.28
2018-04-26T17:35:59.963Z,98117.09
2018-04-26T17:38:27.551Z,98116.89
2018-04-26T17:40:56.103Z,98121.02
2018-04-26T17:43:23.755Z,98124.98
2018-04-26T17:45:51.351Z,98126.45
2018-04-26T17:48:19.819Z,98125.87
2018-04-26T17:50:47.593Z,98127.61
2018-04-26T17:53:15.285Z,98133.56
2018-04-26T17:55:42.868Z,98146.67
2018-04-26T17:58:10.553Z,98139.78
2018-04-26T18:00:38.137Z,98145.45
2018-04-26T18:03:05.745Z,98146.61
2018-04-26T18:05:33.527Z,98157.19
2018-04-26T18:08:01.176Z,98156.66
2018-04-26T18:10:28.774Z,98154.61
2018-04-26T18:12:56.485Z,98162.14
2018-04-26T18:15:24.205Z,98160.02
2018-04-26T18:17:51.779Z,98157.65
2018-04-26T18:20:20.490Z,98168.16
2018-04-26T18:22:48.076Z,98168.62
2018-04-26T18:25:15.740Z,98171.19
2018-04-26T18:27:43.475Z,98170.00
2018-04-26T18:30:11.088Z,98174.10
2018-04-26T18:32:38.707Z,98180.06
2018-04-26T18:35:06.370Z,98175.51
2018-04-26T18:37:33.956Z,98178.20
2018-04-26T18:40:01.633Z,98177.42
2018-04-26T18:42:29.329Z,98173.93
2018-04-26T18:44:56.923Z,98168.96
2018-04-26T18:47:24.573Z,98171.29
2018-04-26T18:49:52.284Z,98171.53
2018-04-26T18:52:19.879Z,98176.66
2018-04-26T18:54:47.525Z,98176.55
2018-04-26T18:57:15.248Z,98174.91
2018-04-26T18:59:43.765Z,98179.31
2018-04-26T19:02:11.348Z,98186.72
2018-04-26T19:04:39.078Z,98188.18
2018-04-26T19:07:06.735Z,98190.56
2018-04-26T19:09:34.311Z,98191.10
2018-04-26T19:12:02.054Z,98192.67
2018-04-26T19:14:29.698Z,98193.23
2018-04-26T19:16:57.330Z,98195.75
2018-04-26T19:19:25.045Z,98198.56
2018-04-26T19:21:52.911Z,98192.00
2018-04-26T19:24:20.506Z,98189.72
2018-04-26T19:26:48.148Z,98186.44
2018-04-26T19:29:15.752Z,98184.12
2018-04-26T19:31:43.349Z,98178.94
2018-04-26T19:34:10.985Z,98182.30
2018-04-26T19:36:38.641Z,98175.73
2018-04-26T19:39:06.271Z,98177.56
2018-04-26T19:41:33.896Z,98176.71
2018-04-26T19:44:01.570Z,98182.00
2018-04-26T19:46:29.155Z,98181.97
2018-04-26T19:48:56.783Z,98198.67
2018-04-26T19:51:24.441Z,98193.70
2018-04-26T19:53:52.030Z,98199.20
2018-04-26T19:56:19.676Z,98198.88
2018-04-26T19:58:47.309Z,98201.17
2018-04-26T20:01:14.925Z,98195.69
2018-04-26T20:03:42.656Z,98197.95
2018-04-26T20:06:10.341Z,98204.40
2018-04-26T20:08:38.005Z,98201.52
2018-04-26T20:11:05.647Z,98199.70
2018-04-26T20:13:33.237Z,98190.84
2018-04-26T20:16:01.028Z,98188.95
2018-04-26T20:18:28.735Z,98183.59
2018-04-26T20:20:56.375Z,98191.08
2018-04-26T20:23:24.204Z,98184.02
2018-04-26T20:25:51.852Z,98183.42
2018-04-26T20:28:19.586Z,98185.32
2018-04-26T20:30:47.166Z,98186.39
2018-04-26T20:33:14.834Z,98182.98
2018-04-26T20:35:42.438Z,98187.80
2018-04-26T20:38:10.027Z,98186.48
2018-04-26T20:40:37.663Z,98187.28
2018-04-26T20:43:05.251Z,98186.66
2018-04-26T20:45:32.925Z,98190.96
2018-04-26T20:48:00.615Z,98187.28
2018-04-26T20:50:28.294Z,98186.92
2018-04-26T20:52:55.811Z,98189.59
2018-04-26T20:55:23.569Z,98188.15
2018-04-26T20:57:51.245Z,98191.50
2018-04-26T21:00:18.881Z,98193.94
2018-04-26T21:02:46.571Z,98194.25
2018-04-26T21:05:14.279Z,98203.53
2018-04-26T21:07:42.021Z,98196.64
2018-04-26T21:10:09.843Z,98194.56
2018-04-26T21:12:37.467Z,98199.09
2018-04-26T21:15:05.134Z,98197.45
2018-04-26T21:17:32.875Z,98200.56
2018-04-26T21:20:00.581Z,98201.44
2018-04-26T21:22:28.282Z,98207.59
2018-04-26T21:24:56.793Z,98203.42
2018-04-26T21:27:24.446Z,98206.16
2018-04-26T21:29:52.148Z,98210.14
2018-04-26T21:32:19.827Z,98215.73
2018-04-26T21:34:47.483Z,98221.50
2018-04-26T21:37:15.176Z,98217.93
2018-04-26T21:39:42.868Z,98222.15
2018-04-26T21:42:10.538Z,98214.55
2018-04-26T21:44:38.362Z,98211.01
2018-04-26T21:47:06.083Z,98210.84
2018-04-26T21:49:33.742Z,98213.66
2018-04-26T21:52:07.028Z,98212.56
2018-04-26T21:54:40.180Z,98224.97
2018-04-26T21:57:14.213Z,98221.48
2018-04-26T21:59:47.444Z,98223.14
2018-04-26T22:02:20.852Z,98218.30
2018-04-26T22:07:57.687Z,98215.47
2018-04-26T22:10:25.330Z,98213.88
2018-04-26T22:12:52.986Z,98218.55
2018-04-26T22:15:20.739Z,98216.24
2018-04-26T22:17:48.395Z,98209.10
2018-04-26T22:20:16.087Z,98213.02
2018-04-26T22:22:43.899Z,98211.84
2018-04-26T22:25:11.671Z,98214.05
2018-04-26T22:27:39.320Z,98207.33
2018-04-26T22:30:07.006Z,98205.96
2018-04-26T22:32:34.655Z,98206.19
2018-04-26T22:35:02.297Z,98213.16
2018-04-26T22:37:29.979Z,98204.05
2018-04-26T22:39:57.624Z,98205.27
2018-04-26T22:42:25.519Z,98203.55
2018-04-26T22:44:53.211Z,98201.27
2018-04-26T22:47:21.020Z,98202.65
2018-04-26T22:49:48.687Z,98201.05
2018-04-26T22:52:16.458Z,98193.25
2018-04-26T22:54:44.119Z,98197.30
2018-04-26T22:57:11.740Z,98190.59
2018-04-26T22:59:39.539Z,98188.98
2018-04-26T23:02:07.190Z,98184.81
2018-04-26T23:04:34.824Z,98182.75
2018-04-26T23:07:02.599Z,98182.92
2018-04-26T23:09:30.310Z,98184.22
2018-04-26T23:11:57.963Z,98185.58
2018-04-26T23:14:25.736Z,98186.00
2018-04-26T23:16:54.259Z,98186.26
2018-04-26T23:19:21.907Z,98188.38
2018-04-26T23:21:49.641Z,98194.67
2018-04-26T23:24:17.340Z,98206.86
2018-04-26T23:26:45.132Z,98208.39
2018-04-26T23:29:12.812Z,98212.27
2018-04-26T23:31:40.463Z,98212.03
2018-04-26T23:34:08.097Z,98217.32
2018-04-26T23:36:35.791Z,98218.61
2018-04-26T23:39:03.540Z,98212.88
2018-04-26T23:41:31.223Z,98216.20
2018-04-26T23:43:59.070Z,98214.59
2018-04-26T23:46:26.778Z,98218.82
2018-04-26T23:48:54.485Z,98221.36
2018-04-26T23:51:22.176Z,98214.92
2018-04-26T23:53:49.815Z,98220.44
2018-04-26T23:56:17.459Z,98225.78
2018-04-26T23:58:45.150Z,98228.95
